Time;durP1;ratioP1;P1;durP2;ratioP2;P2;SDS_P1;SDS_P2;PMS_P1;PMS_P2;Temp;Humidity;BMP_temperature;BMP_pressure;BME280_temperature;BME280_humidity;BME280_pressure;Samples;Min_cycle;Max_cycle;Signal;HPM_P1;HPM_P2
2022/12/10 00:01:10;;;;;;;1999.90;999.90;;;-1.70;99.90;;;;;;5024797;28;20046;-65
2022/12/10 00:03:36;;;;;;;1999.90;999.90;;;-1.70;99.90;;;;;;5024447;28;20410;-66
2022/12/10 00:06:03;;;;;;;1999.90;999.90;;;-1.70;99.90;;;;;;5073990;28;20060;-66
2022/12/10 00:08:29;;;;;;;1999.90;999.90;;;-1.70;99.90;;;;;;5028286;28;20063;-66
2022/12/10 00:10:55;;;;;;;1999.90;999.90;;;-1.70;99.90;;;;;;5044084;28;20475;-66
2022/12/10 00:13:21;;;;;;;1999.90;999.90;;;-1.80;99.90;;;;;;5027034;28;20032;-66
2022/12/10 00:15:46;;;;;;;1999.90;999.90;;;-1.70;99.90;;;;;;5053589;28;20037;-66
2022/12/10 00:18:12;;;;;;;1999.90;999.90;;;-1.70;99.90;;;;;;5028745;28;20040;-66
2022/12/10 00:20:38;;;;;;;1999.90;999.90;;;-1.70;99.90;;;;;;5045140;28;20040;-66
2022/12/10 00:23:03;;;;;;;1999.90;999.90;;;-1.70;99.90;;;;;;5042178;28;20561;-66
2022/12/10 00:25:29;;;;;;;1999.90;999.90;;;-1.70;99.90;;;;;;5044202;28;20068;-66
2022/12/10 00:27:55;;;;;;;1999.90;999.90;;;-1.80;99.90;;;;;;5026402;28;20479;-66
2022/12/10 00:30:20;;;;;;;1999.90;999.90;;;-1.80;99.90;;;;;;5045736;28;20466;-66
2022/12/10 00:32:46;;;;;;;1999.90;999.90;;;-1.70;99.90;;;;;;5076708;28;20048;-67
2022/12/10 00:35:12;;;;;;;1999.90;999.90;;;-1.70;99.90;;;;;;5029314;28;20044;-66
2022/12/10 00:37:37;;;;;;;1999.90;999.90;;;-1.70;99.90;;;;;;5042733;28;21160;-66
2022/12/10 00:40:03;;;;;;;1999.90;999.90;;;-1.70;99.90;;;;;;5028246;28;20522;-66
2022/12/10 00:42:29;;;;;;;1999.90;999.90;;;-1.70;99.90;;;;;;5026151;28;20073;-66
2022/12/10 00:44:54;;;;;;;1999.90;999.90;;;-1.70;99.90;;;;;;5027799;28;20098;-66
2022/12/10 00:47:20;;;;;;;1999.90;999.90;;;-1.70;99.90;;;;;;5046604;28;20041;-66
2022/12/10 00:49:45;;;;;;;1999.90;999.90;;;-1.70;99.90;;;;;;5041355;28;20493;-66
2022/12/10 00:52:11;;;;;;;1999.90;999.90;;;-1.70;99.90;;;;;;5061890;28;20147;-66
2022/12/10 00:54:36;;;;;;;1999.90;999.90;;;-1.70;99.90;;;;;;5062068;28;20075;-66
2022/12/10 00:57:02;;;;;;;1999.90;999.90;;;-1.80;99.90;;;;;;5042981;28;20539;-66
2022/12/10 00:59:28;;;;;;;1999.90;999.90;;;-1.80;99.90;;;;;;5061138;28;20025;-66
2022/12/10 01:01:53;;;;;;;1999.90;999.90;;;-1.80;99.90;;;;;;5043982;28;20063;-66
2022/12/10 01:04:19;;;;;;;1999.90;999.90;;;-1.90;99.90;;;;;;5045760;28;20040;-66
2022/12/10 01:06:47;;;;;;;1999.90;999.90;;;-1.90;99.90;;;;;;5043041;28;20041;-66
2022/12/10 01:09:16;;;;;;;1999.90;999.90;;;-1.90;99.90;;;;;;5042920;28;20036;-66
2022/12/10 01:11:43;;;;;;;1999.90;999.90;;;-1.90;99.90;;;;;;5039694;28;20045;-66
2022/12/10 01:14:12;;;;;;;1999.90;999.90;;;-1.90;99.90;;;;;;5039397;28;20602;-66
2022/12/10 01:16:38;;;;;;;1999.90;999.90;;;-1.90;99.90;;;;;;5040694;28;20071;-66
2022/12/10 01:19:05;;;;;;;1999.90;999.90;;;-2.00;99.90;;;;;;5026102;28;20072;-66
2022/12/10 01:21:30;;;;;;;1999.90;999.90;;;-2.00;99.90;;;;;;5043521;28;20798;-66
2022/12/10 01:23:57;;;;;;;1999.90;999.90;;;-2.00;99.90;;;;;;5078281;28;20064;-66
2022/12/10 01:26:26;;;;;;;1999.90;999.90;;;-2.10;99.90;;;;;;5045901;28;20044;-66
2022/12/10 01:28:53;;;;;;;1999.90;999.90;;;-2.10;99.90;;;;;;5028138;28;20076;-66
2022/12/10 01:31:22;;;;;;;1999.90;999.90;;;-2.10;99.90;;;;;;5048870;28;20040;-66
2022/12/10 01:33:48;;;;;;;1999.90;999.90;;;-2.10;99.90;;;;;;5046432;28;20037;-67
2022/12/10 01:36:16;;;;;;;1999.90;999.90;;;-2.10;99.90;;;;;;5029749;28;20044;-66
2022/12/10 01:38:42;;;;;;;1999.90;999.90;;;-2.10;99.90;;;;;;5045697;28;20638;-66
2022/12/10 01:41:14;;;;;;;1999.90;999.90;;;-2.20;99.90;;;;;;5028764;28;20573;-66
2022/12/10 01:43:57;;;;;;;1999.90;999.90;;;-2.20;99.90;;;;;;5044716;28;20471;-66
2022/12/10 01:46:26;;;;;;;1999.90;999.90;;;-2.20;99.90;;;;;;5042861;28;20041;-66
2022/12/10 01:48:52;;;;;;;1999.90;999.90;;;-2.20;99.90;;;;;;5045405;28;20428;-67
2022/12/10 01:51:18;;;;;;;1999.90;999.90;;;-2.20;99.90;;;;;;5040781;28;20482;-67
2022/12/10 01:53:45;;;;;;;1999.90;999.90;;;-2.20;99.90;;;;;;5027428;28;20076;-66
2022/12/10 01:56:11;;;;;;;1999.90;999.90;;;-2.20;99.90;;;;;;5078234;28;20044;-66
2022/12/10 01:58:38;;;;;;;1999.90;999.90;;;-2.20;99.90;;;;;;5021078;28;20045;-67
2022/12/10 02:01:25;;;;;;;1999.90;999.90;;;-2.20;99.90;;;;;;5035704;28;20445;-66
2022/12/10 02:03:57;;;;;;;1999.90;999.90;;;-2.20;99.90;;;;;;5039262;28;20474;-66
2022/12/10 02:06:50;;;;;;;1999.90;999.90;;;-2.30;99.90;;;;;;5034715;28;20123;-66
2022/12/10 02:09:44;;;;;;;1999.90;999.90;;;-2.30;99.90;;;;;;5046828;28;20036;-66
2022/12/10 02:12:31;;;;;;;1999.90;999.90;;;-2.30;99.90;;;;;;5048327;28;20063;-66
2022/12/10 02:15:02;;;;;;;1999.90;999.90;;;-2.30;99.90;;;;;;5029802;28;20072;-66
2022/12/10 02:17:42;;;;;;;1999.90;999.90;;;-2.30;99.90;;;;;;5044326;28;20414;-66
2022/12/10 02:20:17;;;;;;;1999.90;999.90;;;-2.30;99.90;;;;;;5040602;28;20037;-66
2022/12/10 02:22:51;;;;;;;1999.90;999.90;;;-2.30;99.90;;;;;;5028594;28;20052;-66
2022/12/10 02:25:22;;;;;;;1999.90;999.90;;;-2.30;99.90;;;;;;5038859;28;20045;-66
2022/12/10 02:28:09;;;;;;;1999.90;999.90;;;-2.30;99.90;;;;;;5047816;28;20085;-67
2022/12/10 02:30:36;;;;;;;1999.90;999.90;;;-2.40;99.90;;;;;;5064636;28;20128;-66
2022/12/10 02:33:03;;;;;;;1999.90;999.90;;;-2.40;99.90;;;;;;5045022;28;20040;-66
2022/12/10 02:35:33;;;;;;;1999.90;999.90;;;-2.40;99.90;;;;;;5064719;28;20045;-66
2022/12/10 02:38:14;;;;;;;1999.90;999.90;;;-2.40;99.90;;;;;;5058134;28;20044;-66
2022/12/10 02:40:49;;;;;;;1999.90;999.90;;;-2.40;99.90;;;;;;5065449;28;20036;-66
2022/12/10 02:43:16;;;;;;;1999.90;999.90;;;-2.40;99.90;;;;;;5064397;28;20037;-66
2022/12/10 02:45:43;;;;;;;1999.90;999.90;;;-2.30;99.90;;;;;;5044274;28;20948;-66
2022/12/10 02:48:10;;;;;;;1999.90;999.90;;;-2.30;99.90;;;;;;5063112;28;20405;-66
2022/12/10 02:50:36;;;;;;;1999.90;999.90;;;-2.30;99.90;;;;;;5048351;28;20042;-66
2022/12/10 02:53:02;;;;;;;1999.90;999.90;;;-2.30;99.90;;;;;;5061158;28;20407;-67
2022/12/10 02:55:38;;;;;;;1999.90;999.90;;;-2.30;99.90;;;;;;5066256;28;20037;-66
2022/12/10 02:58:06;;;;;;;1999.90;999.90;;;-2.40;99.90;;;;;;5063154;28;20095;-66
2022/12/10 03:00:40;;;;;;;1999.90;999.90;;;-2.30;99.90;;;;;;5066588;28;20036;-66
2022/12/10 03:03:08;;;;;;;1999.90;999.90;;;-2.30;99.90;;;;;;5049091;28;20143;-66
2022/12/10 03:06:02;;;;;;;1999.90;999.90;;;-2.30;99.90;;;;;;5063250;28;20048;-66
2022/12/10 03:08:37;;;;;;;1999.90;999.90;;;-2.30;99.90;;;;;;5061978;28;20060;-66
2022/12/10 03:11:17;;;;;;;1999.90;999.90;;;-2.30;99.90;;;;;;5092947;28;20044;-66
2022/12/10 03:14:04;;;;;;;1999.90;999.90;;;-2.30;99.90;;;;;;5063218;28;20037;-66
2022/12/10 03:16:35;;;;;;;1999.90;999.90;;;-2.30;99.90;;;;;;5063384;28;20040;-66
2022/12/10 03:19:05;;;;;;;1999.90;999.90;;;-2.30;99.90;;;;;;5060069;28;20040;-66
2022/12/10 03:21:33;;;;;;;1999.90;999.90;;;-2.30;99.90;;;;;;5065565;28;20390;-66
2022/12/10 03:23:59;;;;;;;1999.90;999.90;;;-2.30;99.90;;;;;;5018436;28;20738;-66
2022/12/10 03:26:27;;;;;;;1999.90;999.90;;;-2.30;99.90;;;;;;5043285;28;20083;-66
2022/12/10 03:28:58;;;;;;;1999.90;999.90;;;-2.40;99.90;;;;;;5022533;28;20483;-66
2022/12/10 03:31:24;;;;;;;1999.90;999.90;;;-2.40;99.90;;;;;;5079489;28;20040;-66
2022/12/10 03:33:51;;;;;;;1999.90;999.90;;;-2.40;99.90;;;;;;5024590;28;20040;-66
2022/12/10 03:36:18;;;;;;;1999.90;999.90;;;-2.40;99.90;;;;;;5024335;28;20140;-66
2022/12/10 03:38:44;;;;;;;1999.90;999.90;;;-2.40;99.90;;;;;;5043540;28;20090;-66
2022/12/10 03:41:10;;;;;;;1999.90;999.90;;;-2.40;99.90;;;;;;5062081;28;20066;-66
2022/12/10 03:43:35;;;;;;;1999.90;999.90;;;-2.40;99.90;;;;;;5021130;28;20556;-66
2022/12/10 03:46:01;;;;;;;1999.90;999.90;;;-2.50;99.90;;;;;;5040750;28;20091;-66
2022/12/10 03:48:27;;;;;;;1999.90;999.90;;;-2.40;99.90;;;;;;5041866;28;20421;-66
2022/12/10 03:50:53;;;;;;;1999.90;999.90;;;-2.40;99.90;;;;;;5043431;28;20051;-66
2022/12/10 03:53:18;;;;;;;1999.90;999.90;;;-2.40;99.90;;;;;;5023205;28;20083;-66
2022/12/10 03:55:44;;;;;;;1999.90;999.90;;;-2.40;99.90;;;;;;5041287;28;20025;-66
2022/12/10 03:58:09;;;;;;;1999.90;999.90;;;-2.30;99.90;;;;;;5019923;28;20041;-66
2022/12/10 04:00:35;;;;;;;1999.90;999.90;;;-2.20;99.90;;;;;;5046658;28;20483;-66
2022/12/10 04:03:00;;;;;;;1999.90;999.90;;;-2.20;99.90;;;;;;5026276;28;20138;-66
2022/12/10 04:05:26;;;;;;;1999.90;999.90;;;-2.10;99.90;;;;;;5036564;28;20056;-66
2022/12/10 04:07:52;;;;;;;1999.90;999.90;;;-2.10;99.90;;;;;;5037090;28;20044;-66
2022/12/10 04:10:18;;;;;;;1999.90;999.90;;;-2.00;99.90;;;;;;5018934;28;20071;-66
2022/12/10 04:16:26;;;;;;;1999.90;999.90;;;-2.00;99.90;;;;;;5033837;28;20052;-66
2022/12/10 04:18:13;;;;;;;1999.90;999.90;;;-1.90;99.90;;;;;;5056127;28;20439;-66
2022/12/10 04:28:51;;;;;;;1999.90;999.90;;;-1.80;99.90;;;;;;5077926;28;20133;-66
2022/12/10 04:31:16;;;;;;;1999.90;999.90;;;-1.70;99.90;;;;;;5029087;28;20036;-66
2022/12/10 04:33:42;;;;;;;1999.90;999.90;;;-1.70;99.90;;;;;;5005225;28;20076;-66
2022/12/10 04:36:08;;;;;;;1999.90;999.90;;;-1.70;99.90;;;;;;5067758;28;20090;-66
2022/12/10 04:38:33;;;;;;;1999.90;999.90;;;-1.70;99.90;;;;;;5039343;28;20060;-66
2022/12/10 04:40:59;;;;;;;1999.90;999.90;;;-1.60;99.90;;;;;;5024083;28;20119;-66
2022/12/10 04:43:24;;;;;;;1999.90;999.90;;;-1.60;99.90;;;;;;5047027;28;20035;-66
2022/12/10 04:45:50;;;;;;;1999.90;999.90;;;-1.50;99.90;;;;;;5042179;28;20048;-66
2022/12/10 04:48:15;;;;;;;1999.90;999.90;;;-1.50;99.90;;;;;;5026599;28;20041;-66
2022/12/10 04:50:41;;;;;;;1999.90;999.90;;;-1.40;99.90;;;;;;5026157;28;20037;-66
2022/12/10 04:53:06;;;;;;;1999.90;999.90;;;-1.40;99.90;;;;;;5025742;28;20076;-66
2022/12/10 04:55:32;;;;;;;1999.90;999.90;;;-1.40;99.90;;;;;;5043157;28;20044;-66
2022/12/10 04:57:58;;;;;;;1999.90;999.90;;;-1.30;99.90;;;;;;5026292;28;20114;-66
2022/12/10 05:00:24;;;;;;;1999.90;999.90;;;-1.30;99.90;;;;;;5040487;28;20033;-66
2022/12/10 05:02:50;;;;;;;1999.90;999.90;;;-1.30;99.90;;;;;;5042540;28;20137;-66
2022/12/10 05:05:15;;;;;;;1999.90;999.90;;;-1.30;99.90;;;;;;5032658;28;20102;-66
2022/12/10 05:07:41;;;;;;;1999.90;999.90;;;-1.30;99.90;;;;;;5048376;28;20049;-66
2022/12/10 05:10:07;;;;;;;1999.90;999.90;;;-1.30;99.90;;;;;;5045388;28;20036;-66
2022/12/10 05:12:32;;;;;;;1999.90;999.90;;;-1.30;99.90;;;;;;5049523;28;20521;-66
2022/12/10 05:14:58;;;;;;;1999.90;999.90;;;-1.20;99.90;;;;;;5049074;28;20153;-66
2022/12/10 05:17:23;;;;;;;1999.90;999.90;;;-1.20;99.90;;;;;;5033018;28;20033;-66
2022/12/10 05:19:49;;;;;;;1999.90;999.90;;;-1.20;99.90;;;;;;5045714;28;20072;-66
2022/12/10 05:25:09;;;;;;;1999.90;999.90;;;-1.20;99.90;;;;;;4992831;28;20108;-66
2022/12/10 05:27:35;;;;;;;1999.90;999.90;;;-1.20;99.90;;;;;;5047132;28;20062;-66
2022/12/10 05:30:00;;;;;;;1999.90;999.90;;;-1.20;99.90;;;;;;5064692;28;20059;-66
2022/12/10 05:32:26;;;;;;;1999.90;999.90;;;-1.20;99.90;;;;;;5047346;28;20038;-66
2022/12/10 05:34:52;;;;;;;1999.90;999.90;;;-1.20;99.90;;;;;;5027523;28;20045;-66
2022/12/10 05:37:17;;;;;;;1999.90;999.90;;;-1.20;99.90;;;;;;5041260;28;20040;-66
2022/12/10 05:39:43;;;;;;;1999.90;999.90;;;-1.20;99.90;;;;;;5047218;28;20036;-66
2022/12/10 05:42:08;;;;;;;1999.90;999.90;;;-1.20;99.90;;;;;;5048402;28;20037;-66
2022/12/10 05:44:34;;;;;;;1999.90;999.90;;;-1.20;99.90;;;;;;5049350;28;20040;-66
2022/12/10 05:46:59;;;;;;;1999.90;999.90;;;-1.20;99.90;;;;;;5048665;28;20559;-66
2022/12/10 05:49:25;;;;;;;1999.90;999.90;;;-1.20;99.90;;;;;;5029961;28;20033;-66
2022/12/10 05:51:54;;;;;;;1999.90;999.90;;;-1.30;99.90;;;;;;5047554;28;20094;-66
2022/12/10 05:54:19;;;;;;;1999.90;999.90;;;-1.30;99.90;;;;;;5044065;28;20039;-66
2022/12/10 05:56:45;;;;;;;1999.90;999.90;;;-1.20;99.90;;;;;;5048456;28;20538;-66
2022/12/10 05:59:11;;;;;;;1999.90;999.90;;;-1.30;99.90;;;;;;5049067;28;20957;-66
2022/12/10 06:01:36;;;;;;;1999.90;999.90;;;-1.20;99.90;;;;;;5048754;28;20037;-66
2022/12/10 06:04:04;;;;;;;1999.90;999.90;;;-1.20;99.90;;;;;;5046957;28;20052;-66
2022/12/10 06:06:32;;;;;;;1999.90;999.90;;;-1.20;99.90;;;;;;5047813;28;20048;-66
2022/12/10 06:08:58;;;;;;;1999.90;999.90;;;-1.20;99.90;;;;;;5048991;28;20377;-66
2022/12/10 06:11:26;;;;;;;1999.90;999.90;;;-1.20;99.90;;;;;;5045608;28;20041;-66
2022/12/10 06:13:52;;;;;;;1999.90;999.90;;;-1.20;99.90;;;;;;5045784;28;20044;-66
2022/12/10 06:16:18;;;;;;;1999.90;999.90;;;-1.20;99.90;;;;;;5028637;28;20441;-66
2022/12/10 06:18:44;;;;;;;1999.90;999.90;;;-1.20;99.90;;;;;;5047011;28;20032;-66
2022/12/10 06:21:13;;;;;;;1999.90;999.90;;;-1.20;99.90;;;;;;5046273;28;20063;-66
2022/12/10 06:23:39;;;;;;;1999.90;999.90;;;-1.20;99.90;;;;;;5047798;28;20068;-66
2022/12/10 06:26:07;;;;;;;1999.90;999.90;;;-1.20;99.90;;;;;;5048706;28;20639;-66
2022/12/10 06:28:32;;;;;;;1999.90;999.90;;;-1.20;99.90;;;;;;5032353;28;20043;-66
2022/12/10 06:30:59;;;;;;;1999.90;999.90;;;-1.20;99.90;;;;;;5062295;28;20033;-66
2022/12/10 06:33:25;;;;;;;1999.90;999.90;;;-1.20;99.90;;;;;;5048338;28;20496;-66
2022/12/10 06:35:51;;;;;;;1999.90;999.90;;;-1.20;99.90;;;;;;5028558;28;20504;-66
2022/12/10 06:38:17;;;;;;;1999.90;999.90;;;-1.20;99.90;;;;;;5026635;28;20055;-66
2022/12/10 06:40:42;;;;;;;1999.90;999.90;;;-1.20;99.90;;;;;;5044488;28;20043;-66
2022/12/10 06:43:08;;;;;;;1999.90;999.90;;;-1.20;99.90;;;;;;5045784;28;20126;-66
2022/12/10 06:45:37;;;;;;;1999.90;999.90;;;-1.20;99.90;;;;;;5062287;28;20402;-67
2022/12/10 06:48:03;;;;;;;1999.90;999.90;;;-1.20;99.90;;;;;;5041731;28;20052;-66
2022/12/10 06:50:28;;;;;;;1999.90;999.90;;;-1.20;99.90;;;;;;5046959;28;20051;-66
2022/12/10 06:52:54;;;;;;;1999.90;999.90;;;-1.20;99.90;;;;;;5045165;28;20052;-67
2022/12/10 06:55:19;;;;;;;1999.90;999.90;;;-1.20;99.90;;;;;;5045914;28;20040;-66
2022/12/10 06:57:45;;;;;;;1999.90;999.90;;;-1.20;99.90;;;;;;5042553;28;20122;-66
2022/12/10 07:00:11;;;;;;;1999.90;999.90;;;-1.20;99.90;;;;;;5029936;28;20533;-66
2022/12/10 07:02:37;;;;;;;1999.90;999.90;;;-1.20;99.90;;;;;;5031521;28;20702;-66
2022/12/10 07:05:03;;;;;;;1999.90;999.90;;;-1.20;99.90;;;;;;5046095;28;20048;-66
2022/12/10 07:07:28;;;;;;;1999.90;999.90;;;-1.20;99.90;;;;;;5047036;28;20041;-66
2022/12/10 07:09:54;;;;;;;1999.90;999.90;;;-1.20;99.90;;;;;;5030237;28;20051;-66
2022/12/10 07:12:19;;;;;;;1999.90;999.90;;;-1.20;99.90;;;;;;5046326;28;20044;-66
2022/12/10 07:14:45;;;;;;;1999.90;999.90;;;-1.20;99.90;;;;;;5041157;28;20543;-67
2022/12/10 07:17:10;;;;;;;1999.90;999.90;;;-1.20;99.90;;;;;;5045547;28;20029;-66
2022/12/10 07:19:36;;;;;;;1999.90;999.90;;;-1.20;99.90;;;;;;5045155;28;20127;-66
2022/12/10 07:22:02;;;;;;;1999.90;999.90;;;-1.20;99.90;;;;;;5045961;28;20033;-66
2022/12/10 07:24:28;;;;;;;1999.90;999.90;;;-1.30;99.90;;;;;;5045628;28;20107;-66
2022/12/10 07:26:53;;;;;;;1999.90;999.90;;;-1.30;99.90;;;;;;5029123;28;20048;-66
2022/12/10 07:29:20;;;;;;;1999.90;999.90;;;-1.30;99.90;;;;;;5042958;28;20478;-66
2022/12/10 07:31:50;;;;;;;1999.90;999.90;;;-1.30;99.90;;;;;;5044075;28;20398;-66
2022/12/10 07:34:16;;;;;;;1999.90;999.90;;;-1.30;99.90;;;;;;5029487;28;20043;-66
2022/12/10 07:36:41;;;;;;;1999.90;999.90;;;-1.40;99.90;;;;;;5031782;28;20040;-66
2022/12/10 07:39:09;;;;;;;1999.90;999.90;;;-1.30;99.90;;;;;;5027759;28;20586;-67
2022/12/10 07:41:35;;;;;;;1999.90;999.90;;;-1.40;99.90;;;;;;5042729;28;20040;-67
2022/12/10 07:44:02;;;;;;;1999.90;999.90;;;-1.30;99.90;;;;;;5045566;28;20076;-66
2022/12/10 07:46:31;;;;;;;1999.90;999.90;;;-1.40;99.90;;;;;;5044461;28;20121;-66
2022/12/10 07:48:59;;;;;;;1999.90;999.90;;;-1.30;99.90;;;;;;5043707;28;20094;-66
2022/12/10 07:51:24;;;;;;;1999.90;999.90;;;-1.30;99.90;;;;;;5041926;28;20442;-66
2022/12/10 07:53:54;;;;;;;1999.90;999.90;;;-1.30;99.90;;;;;;5023921;28;20123;-66
2022/12/10 07:56:21;;;;;;;1999.90;999.90;;;-1.30;99.90;;;;;;5033889;28;20044;-66
2022/12/10 07:58:47;;;;;;;1999.90;999.90;;;-1.30;99.90;;;;;;5044847;28;20119;-66
2022/12/10 08:01:18;;;;;;;1999.90;999.90;;;-1.30;99.90;;;;;;5044949;28;20119;-66
2022/12/10 08:03:44;;;;;;;1999.90;999.90;;;-1.30;99.90;;;;;;5065915;28;20414;-66
2022/12/10 08:06:13;;;;;;;1999.90;999.90;;;-1.30;99.90;;;;;;5045522;28;20056;-66
2022/12/10 08:08:39;;;;;;;1999.90;999.90;;;-1.30;99.90;;;;;;5029240;28;20490;-66
2022/12/10 08:11:06;;;;;;;1999.90;999.90;;;-1.30;99.90;;;;;;5044947;28;20056;-67
2022/12/10 08:13:33;;;;;;;1999.90;999.90;;;-1.30;99.90;;;;;;5037618;28;20044;-66
2022/12/10 08:16:05;;;;;;;1999.90;999.90;;;-1.30;99.90;;;;;;5044727;28;20379;-66
2022/12/10 08:18:32;;;;;;;1999.90;999.90;;;-1.30;99.90;;;;;;5041874;28;20394;-66
2022/12/10 08:20:57;;;;;;;1999.90;999.90;;;-1.30;99.90;;;;;;5026261;28;20436;-67
2022/12/10 08:23:23;;;;;;;1999.90;999.90;;;-1.30;99.90;;;;;;5029916;28;20036;-66
2022/12/10 08:25:49;;;;;;;1999.90;999.90;;;-1.30;99.90;;;;;;5027940;28;20036;-67
2022/12/10 08:28:15;;;;;;;1999.90;999.90;;;-1.30;99.90;;;;;;5043752;28;20048;-66
2022/12/10 08:30:46;;;;;;;1999.90;999.90;;;-1.20;99.90;;;;;;5063247;28;20098;-66
2022/12/10 08:33:12;;;;;;;1999.90;999.90;;;-1.20;99.90;;;;;;5046374;28;20040;-66
2022/12/10 08:35:37;;;;;;;1999.90;999.90;;;-1.20;99.90;;;;;;5028492;28;20033;-66
2022/12/10 08:38:03;;;;;;;1999.90;999.90;;;-1.20;99.90;;;;;;5046989;28;20387;-66
2022/12/10 08:40:29;;;;;;;1999.90;999.90;;;-1.20;99.90;;;;;;5047297;28;20036;-66
2022/12/10 08:42:54;;;;;;;1999.90;999.90;;;-1.20;99.90;;;;;;5033693;28;20063;-67
2022/12/10 08:45:20;;;;;;;1999.90;999.90;;;-1.20;99.90;;;;;;5080808;28;20040;-66
2022/12/10 08:47:45;;;;;;;1999.90;999.90;;;-1.20;99.90;;;;;;5048021;28;20539;-66
2022/12/10 08:50:11;;;;;;;1999.90;999.90;;;-1.10;99.90;;;;;;5032698;28;20478;-67
2022/12/10 08:52:37;;;;;;;1999.90;999.90;;;-1.20;99.90;;;;;;5046605;28;20045;-66
2022/12/10 08:55:03;;;;;;;1999.90;999.90;;;-1.20;99.90;;;;;;5046536;28;20084;-67
2022/12/10 08:57:28;;;;;;;1999.90;999.90;;;-1.20;99.90;;;;;;5049298;28;20041;-67
2022/12/10 08:59:54;;;;;;;1999.90;999.90;;;-1.10;99.90;;;;;;5046562;28;20048;-67
2022/12/10 09:02:20;;;;;;;1999.90;999.90;;;-1.10;99.90;;;;;;5048673;28;20052;-67
2022/12/10 09:04:46;;;;;;;1999.90;999.90;;;-1.10;99.90;;;;;;5030933;28;20033;-67
2022/12/10 09:07:12;;;;;;;1999.90;999.90;;;-1.10;99.90;;;;;;5028859;28;20410;-67
2022/12/10 09:09:37;;;;;;;1999.90;999.90;;;-1.10;99.90;;;;;;5043072;28;20119;-67
2022/12/10 09:12:03;;;;;;;1999.90;999.90;;;-1.10;99.90;;;;;;5029988;28;20147;-66
2022/12/10 09:14:29;;;;;;;1999.90;999.90;;;-1.10;99.90;;;;;;5054836;28;20114;-67
2022/12/10 09:16:54;;;;;;;1999.90;999.90;;;-1.10;99.90;;;;;;5023416;28;20107;-67
2022/12/10 09:19:20;;;;;;;1999.90;999.90;;;-1.10;99.90;;;;;;5042857;28;20036;-67
2022/12/10 09:21:46;;;;;;;1999.90;999.90;;;-1.10;99.90;;;;;;5062143;28;20040;-67
2022/12/10 09:24:12;;;;;;;1999.90;999.90;;;-1.10;99.90;;;;;;5046701;28;20051;-67
2022/12/10 09:26:38;;;;;;;1999.90;999.90;;;-1.10;99.90;;;;;;5040435;28;20041;-67
2022/12/10 09:29:03;;;;;;;1999.90;999.90;;;-1.10;99.90;;;;;;5008760;28;20042;-66
2022/12/10 09:31:29;;;;;;;1999.90;999.90;;;-1.00;99.90;;;;;;5053137;28;20527;-67
2022/12/10 09:33:55;;;;;;;1999.90;999.90;;;-1.00;99.90;;;;;;5043311;28;20394;-67
2022/12/10 09:36:21;;;;;;;1999.90;999.90;;;-1.00;99.90;;;;;;5036983;28;20045;-67
2022/12/10 09:38:48;;;;;;;1999.90;999.90;;;-1.00;99.90;;;;;;5027706;28;20415;-67
2022/12/10 09:41:22;;;;;;;1999.90;999.90;;;-0.90;99.90;;;;;;5028617;28;20113;-67
2022/12/10 09:43:59;;;;;;;1999.90;999.90;;;-1.00;99.90;;;;;;5043482;28;20408;-67
2022/12/10 09:46:53;;;;;;;1999.90;999.90;;;-1.00;99.90;;;;;;5059882;28;20412;-67
2022/12/10 09:49:50;;;;;;;1999.90;999.90;;;-0.90;99.90;;;;;;5023434;28;20060;-67
2022/12/10 09:52:20;;;;;;;1999.90;999.90;;;-0.90;99.90;;;;;;5045094;28;20095;-66
2022/12/10 09:54:56;;;;;;;1999.90;999.90;;;-0.80;99.90;;;;;;5037232;28;20072;-67
2022/12/10 09:57:41;;;;;;;1999.90;999.90;;;-0.80;99.90;;;;;;5054928;28;20032;-67
2022/12/10 10:00:33;;;;;;;1999.90;999.90;;;-0.80;99.90;;;;;;5036737;28;20546;-67
2022/12/10 10:03:00;;;;;;;1999.90;999.90;;;-0.80;99.90;;;;;;5045653;28;20072;-67
2022/12/10 10:05:32;;;;;;;1999.90;999.90;;;-0.80;99.90;;;;;;5031985;28;20049;-67
2022/12/10 10:08:02;;;;;;;1999.90;999.90;;;-0.80;99.90;;;;;;5046015;28;20055;-66
2022/12/10 10:10:38;;;;;;;1999.90;999.90;;;-0.80;99.90;;;;;;5047045;28;20044;-67
2022/12/10 10:13:24;;;;;;;1999.90;999.90;;;-0.80;99.90;;;;;;5032746;28;20045;-67
2022/12/10 10:15:51;;;;;;;1999.90;999.90;;;-0.70;99.90;;;;;;5055758;28;20084;-67
2022/12/10 10:18:41;;;;;;;1999.90;999.90;;;-0.80;99.90;;;;;;5062108;28;20033;-67
2022/12/10 10:21:17;;;;;;;1999.90;999.90;;;-0.80;99.90;;;;;;5010636;28;20037;-67
2022/12/10 10:23:45;;;;;;;1999.90;999.90;;;-0.70;99.90;;;;;;5041941;28;20040;-67
2022/12/10 10:26:11;;;;;;;1999.90;999.90;;;-0.80;99.90;;;;;;5033292;28;20041;-67
2022/12/10 10:28:39;;;;;;;1999.90;999.90;;;-0.70;99.90;;;;;;5033134;28;20052;-67
2022/12/10 10:31:22;;;;;;;1999.90;999.90;;;-0.70;99.90;;;;;;5016044;28;20189;-67
2022/12/10 10:33:58;;;;;;;1999.90;999.90;;;-0.70;99.90;;;;;;5034620;28;20050;-66
2022/12/10 10:36:30;;;;;;;1999.90;999.90;;;-0.80;99.90;;;;;;5021745;28;20414;-67
2022/12/10 10:38:55;;;;;;;1999.90;999.90;;;-0.80;99.90;;;;;;5058519;28;20052;-67
2022/12/10 10:41:24;;;;;;;1999.90;999.90;;;-0.70;99.90;;;;;;5035060;28;20100;-67
2022/12/10 10:43:59;;;;;;;1999.90;999.90;;;-0.70;99.90;;;;;;5044004;28;20044;-67
2022/12/10 10:46:25;;;;;;;1999.90;999.90;;;-0.70;99.90;;;;;;5022972;28;20048;-67
2022/12/10 10:48:51;;;;;;;1999.90;999.90;;;-0.70;99.90;;;;;;5027782;28;20037;-67
2022/12/10 10:51:25;;;;;;;1999.90;999.90;;;-0.70;99.90;;;;;;5036092;28;20115;-67
2022/12/10 10:53:54;;;;;;;1999.90;999.90;;;-0.70;99.90;;;;;;5029977;28;20044;-67
2022/12/10 10:56:46;;;;;;;1999.90;999.90;;;-0.60;99.90;;;;;;5042299;28;20044;-67
2022/12/10 10:59:16;;;;;;;1999.90;999.90;;;-0.50;99.90;;;;;;5023996;28;20079;-67
2022/12/10 11:01:50;;;;;;;1999.90;999.90;;;-0.50;99.90;;;;;;5029486;28;20457;-67
2022/12/10 11:04:29;;;;;;;1999.90;999.90;;;-0.50;99.90;;;;;;5044855;28;20084;-67
2022/12/10 11:06:59;;;;;;;1999.90;999.90;;;-0.40;99.90;;;;;;5024492;28;20486;-67
2022/12/10 11:09:28;;;;;;;1999.90;999.90;;;-0.40;99.90;;;;;;5024945;28;20041;-67
2022/12/10 11:12:00;;;;;;;1999.90;999.90;;;-0.30;99.90;;;;;;5045074;28;20439;-67
2022/12/10 11:14:30;;;;;;;1999.90;999.90;;;-0.20;99.90;;;;;;5025510;28;20487;-67
2022/12/10 11:17:18;;;;;;;1999.90;999.90;;;-0.20;99.90;;;;;;5040400;28;20045;-67
2022/12/10 11:19:58;;;;;;;1999.90;999.90;;;-0.20;99.90;;;;;;5055167;28;20037;-67
2022/12/10 11:22:27;;;;;;;1999.90;999.90;;;-0.20;99.90;;;;;;5023390;28;20544;-67
2022/12/10 11:24:53;;;;;;;1999.90;999.90;;;-0.20;99.90;;;;;;5035086;28;20051;-67
2022/12/10 11:27:44;;;;;;;1999.90;999.90;;;-0.20;99.90;;;;;;5034687;28;20488;-67
2022/12/10 11:30:14;;;;;;;1999.90;999.90;;;-0.20;99.90;;;;;;5036873;28;20113;-67
2022/12/10 11:32:58;;;;;;;1999.90;999.90;;;-0.20;99.90;;;;;;5033463;28;20121;-67
2022/12/10 11:35:46;;;;;;;1999.90;999.90;;;-0.10;99.90;;;;;;5035001;28;20037;-67
2022/12/10 11:38:37;;;;;;;1999.90;999.90;;;-0.10;99.90;;;;;;5040629;28;20039;-67
2022/12/10 11:41:26;;;;;;;1999.90;999.90;;;-0.10;99.90;;;;;;5040359;28;20554;-67
2022/12/10 11:44:22;;;;;;;1999.90;999.90;;;-0.10;99.90;;;;;;5028316;28;20059;-67
2022/12/10 11:46:57;;;;;;;1999.90;999.90;;;-0.10;99.90;;;;;;5043063;28;20441;-67
2022/12/10 11:49:47;;;;;;;1999.90;999.90;;;-0.10;99.90;;;;;;5035337;28;20067;-67
2022/12/10 11:52:28;;;;;;;1999.90;999.90;;;-0.10;99.90;;;;;;5027636;28;20089;-67
2022/12/10 11:55:38;;;;;;;1999.90;999.90;;;-0.10;99.90;;;;;;5034345;28;20049;-67
2022/12/10 11:58:29;;;;;;;1999.90;999.90;;;-0.10;99.90;;;;;;5055361;28;20123;-66
2022/12/10 12:01:12;;;;;;;1999.90;999.90;;;0.00;99.90;;;;;;5029434;28;20043;-66
2022/12/10 12:04:00;;;;;;;1999.90;999.90;;;0.00;99.90;;;;;;5035361;28;20057;-66
2022/12/10 12:06:45;;;;;;;1999.90;999.90;;;0.00;99.90;;;;;;5037223;28;20398;-66
2022/12/10 12:09:53;;;;;;;1999.90;999.90;;;0.00;99.90;;;;;;5043515;28;20048;-66
2022/12/10 12:12:46;;;;;;;1999.90;999.90;;;0.10;99.90;;;;;;5071123;28;20090;-66
2022/12/10 12:15:14;;;;;;;1999.90;999.90;;;0.00;99.90;;;;;;5042157;28;20044;-67
2022/12/10 12:17:43;;;;;;;1999.90;999.90;;;0.10;99.90;;;;;;5014195;28;20055;-66
2022/12/10 12:20:25;;;;;;;1999.90;999.90;;;0.00;99.90;;;;;;5022898;28;20352;-67
2022/12/10 12:23:00;;;;;;;1999.90;999.90;;;0.00;99.90;;;;;;5031808;28;20123;-67
2022/12/10 12:25:39;;;;;;;1999.90;999.90;;;0.10;99.90;;;;;;5044308;28;20047;-67